createdAt,value
2022-11-28T00:01:35.765Z,3.49
2022-11-28T00:04:02.663Z,3.47
2022-11-28T00:06:39.877Z,3.47
2022-11-28T00:09:09.673Z,3.42
2022-11-28T00:11:36.520Z,3.36
2022-11-28T00:14:03.207Z,3.28
2022-11-28T00:16:29.930Z,3.38
2022-11-28T00:18:59.068Z,3.34
2022-11-28T00:21:25.805Z,3.36
2022-11-28T00:23:56.249Z,3.43
2022-11-28T00:26:26.406Z,3.44
2022-11-28T00:28:53.683Z,3.40
2022-11-28T00:31:23.221Z,3.45
2022-11-28T00:33:50.693Z,3.46
2022-11-28T00:36:17.833Z,3.47
2022-11-28T00:38:44.979Z,3.43
2022-11-28T00:41:14.604Z,3.42
2022-11-28T00:43:42.780Z,3.36
2022-11-28T00:46:11.081Z,3.38
2022-11-28T00:48:39.409Z,3.34
2022-11-28T00:51:13.397Z,3.32
2022-11-28T00:53:42.545Z,3.32
2022-11-28T00:56:11.846Z,3.32
2022-11-28T00:58:39.566Z,3.28
2022-11-28T01:01:16.388Z,3.18
2022-11-28T01:03:43.442Z,3.18
2022-11-28T01:06:10.999Z,3.23
2022-11-28T01:08:38.079Z,3.21
2022-11-28T01:11:11.514Z,3.28
2022-11-28T01:13:38.120Z,3.36
2022-11-28T01:16:04.964Z,3.38
2022-11-28T01:18:31.646Z,3.39
2022-11-28T01:20:58.699Z,3.32
2022-11-28T01:23:25.335Z,3.36
2022-11-28T01:25:52.045Z,3.31
2022-11-28T01:28:18.821Z,3.36
2022-11-28T01:30:45.495Z,3.39
2022-11-28T01:33:12.317Z,3.33
2022-11-28T01:35:39.013Z,3.31
2022-11-28T01:38:05.827Z,3.32
2022-11-28T01:40:32.450Z,3.29
2022-11-28T01:42:59.148Z,3.30
2022-11-28T01:45:31.756Z,3.31
2022-11-28T01:48:02.581Z,3.32
2022-11-28T01:50:31.408Z,3.24
2022-11-28T01:53:01.926Z,3.23
2022-11-28T01:55:33.328Z,3.13
2022-11-28T01:58:00.276Z,3.21
2022-11-28T02:00:27.186Z,3.25
2022-11-28T02:03:05.255Z,3.14
2022-11-28T02:05:32.772Z,3.16
2022-11-28T02:07:59.625Z,3.19
2022-11-28T02:10:36.864Z,3.21
2022-11-28T02:13:23.490Z,3.20
2022-11-28T02:16:07.178Z,3.23
2022-11-28T02:19:06.011Z,3.23
2022-11-28T02:21:46.783Z,3.29
2022-11-28T02:24:16.496Z,3.28
2022-11-28T02:27:01.596Z,3.30
2022-11-28T02:29:43.579Z,3.31
2022-11-28T02:32:24.130Z,3.30
2022-11-28T02:35:08.634Z,3.23
2022-11-28T02:37:57.710Z,3.21
2022-11-28T02:40:41.016Z,3.24
2022-11-28T02:43:36.826Z,3.23
2022-11-28T02:46:54.718Z,3.20
2022-11-28T02:49:49.800Z,3.21
2022-11-28T02:52:23.760Z,3.19
2022-11-28T02:54:52.361Z,3.18
2022-11-28T02:57:19.075Z,3.18
2022-11-28T02:59:49.092Z,3.27
2022-11-28T03:02:25.129Z,3.22
2022-11-28T03:05:12.296Z,3.29
2022-11-28T03:07:48.180Z,3.31
2022-11-28T03:10:28.310Z,3.36
2022-11-28T03:13:36.690Z,3.36
2022-11-28T03:16:46.646Z,3.39
2022-11-28T03:19:27.623Z,3.45
2022-11-28T03:21:56.595Z,3.50
2022-11-28T03:24:38.040Z,3.51
2022-11-28T03:27:32.761Z,3.49
2022-11-28T03:30:15.088Z,3.53
2022-11-28T03:32:46.151Z,3.54
2022-11-28T03:35:18.225Z,3.57
2022-11-28T03:37:51.037Z,3.56
2022-11-28T03:40:24.693Z,3.56
2022-11-28T03:43:05.254Z,3.66
2022-11-28T03:45:39.425Z,3.67
2022-11-28T03:48:21.401Z,3.66
2022-11-28T03:50:57.766Z,3.73
2022-11-28T03:53:34.857Z,3.68
2022-11-28T03:56:14.880Z,3.67
2022-11-28T03:58:54.499Z,3.69
2022-11-28T04:01:34.322Z,3.68
2022-11-28T04:04:14.665Z,3.79
2022-11-28T04:06:53.694Z,3.83
2022-11-28T04:09:32.098Z,3.82
2022-11-28T04:12:08.050Z,3.87
2022-11-28T04:14:44.163Z,3.83
2022-11-28T04:17:19.244Z,3.85
2022-11-28T04:19:50.873Z,3.88
2022-11-28T04:22:52.984Z,3.91
2022-11-28T04:25:22.091Z,3.89
2022-11-28T04:27:55.377Z,3.89
2022-11-28T04:30:22.210Z,3.86
2022-11-28T04:32:59.472Z,3.90
2022-11-28T04:35:32.977Z,3.89
2022-11-28T04:38:01.652Z,3.86
2022-11-28T04:40:32.321Z,3.85
2022-11-28T04:43:08.820Z,3.84
2022-11-28T04:45:42.043Z,3.75
2022-11-28T04:48:12.569Z,3.70
2022-11-28T04:51:01.649Z,3.76
2022-11-28T04:53:33.119Z,3.79
2022-11-28T04:56:07.588Z,3.75
2022-11-28T04:58:39.438Z,3.71
2022-11-28T05:01:10.249Z,3.68
2022-11-28T05:03:42.425Z,3.70
2022-11-28T05:06:09.890Z,3.69
2022-11-28T05:08:36.630Z,3.67
2022-11-28T05:11:10.714Z,3.63
2022-11-28T05:13:39.416Z,3.63
2022-11-28T05:16:06.559Z,3.59
2022-11-28T05:18:46.308Z,3.55
2022-11-28T05:21:13.198Z,3.57
2022-11-28T05:23:42.574Z,3.56
2022-11-28T05:26:11.953Z,3.58
2022-11-28T05:28:39.335Z,3.62
2022-11-28T05:31:06.249Z,3.57
2022-11-28T05:33:34.376Z,3.59
2022-11-28T05:36:09.895Z,3.55
2022-11-28T05:38:39.598Z,3.54
2022-11-28T05:41:08.830Z,3.53
2022-11-28T05:43:36.012Z,3.52
2022-11-28T05:46:05.751Z,3.52
2022-11-28T05:48:32.697Z,3.48
2022-11-28T05:50:59.496Z,3.51
2022-11-28T05:53:26.501Z,3.50
2022-11-28T05:56:01.353Z,3.44
2022-11-28T05:58:30.358Z,3.47
2022-11-28T06:00:56.984Z,3.51
2022-11-28T06:03:28.797Z,3.53
2022-11-28T06:05:55.530Z,3.59
2022-11-28T06:08:25.278Z,3.61
2022-11-28T06:10:59.186Z,3.63
2022-11-28T06:13:25.825Z,3.67
2022-11-28T06:15:53.308Z,3.67
2022-11-28T06:18:19.865Z,3.66
2022-11-28T06:20:46.449Z,3.66
2022-11-28T06:23:13.626Z,3.67
2022-11-28T06:25:40.220Z,3.72
2022-11-28T06:28:09.564Z,3.73
2022-11-28T06:30:36.667Z,3.75
2022-11-28T06:33:05.752Z,3.80
2022-11-28T06:35:32.458Z,3.75
2022-11-28T06:37:59.178Z,3.72
2022-11-28T06:40:27.547Z,3.83
2022-11-28T06:42:54.231Z,3.83
2022-11-28T06:45:20.826Z,3.85
2022-11-28T06:47:50.857Z,3.82
2022-11-28T06:50:17.568Z,3.71
2022-11-28T06:52:46.655Z,3.76
2022-11-28T06:55:13.298Z,3.83
2022-11-28T06:57:39.935Z,3.81
2022-11-28T07:00:07.535Z,3.85
2022-11-28T07:02:34.231Z,3.81
2022-11-28T07:05:00.820Z,3.84
2022-11-28T07:07:27.499Z,3.81
2022-11-28T07:09:54.109Z,3.85
2022-11-28T07:12:20.859Z,3.86
2022-11-28T07:14:47.519Z,3.85
2022-11-28T07:17:14.132Z,3.86
2022-11-28T07:19:43.447Z,3.82
2022-11-28T07:22:12.778Z,3.83
2022-11-28T07:24:39.313Z,3.77
2022-11-28T07:27:06.032Z,3.85
2022-11-28T07:29:36.538Z,3.83
2022-11-28T07:32:07.933Z,3.86
2022-11-28T07:34:34.897Z,3.94
2022-11-28T07:37:01.678Z,3.92
2022-11-28T07:39:28.447Z,3.98
2022-11-28T07:41:55.362Z,3.94
2022-11-28T07:44:25.054Z,3.98
2022-11-28T07:46:52.261Z,3.99
2022-11-28T07:49:18.991Z,4.02
2022-11-28T07:51:45.882Z,4.03
2022-11-28T07:54:12.800Z,4.02
2022-11-28T07:57:10.718Z,4.09
2022-11-28T07:59:26.526Z,4.11
2022-11-28T08:01:53.933Z,4.16
2022-11-28T08:04:21.086Z,4.14
2022-11-28T08:06:47.739Z,4.17
2022-11-28T08:09:19.396Z,4.19
2022-11-28T08:11:46.026Z,4.23
2022-11-28T08:14:14.169Z,4.24
2022-11-28T08:16:44.821Z,4.29
2022-11-28T08:19:11.626Z,4.33
2022-11-28T08:21:38.815Z,4.32
2022-11-28T08:24:08.881Z,4.32
2022-11-28T08:26:36.729Z,4.35
2022-11-28T08:29:04.057Z,4.41
2022-11-28T08:31:34.550Z,4.40
2022-11-28T08:34:03.420Z,4.48
2022-11-28T08:36:30.167Z,4.50
2022-11-28T08:41:45.836Z,4.57
2022-11-28T08:44:14.621Z,4.63
2022-11-28T08:46:41.507Z,4.64
2022-11-28T08:49:11.122Z,4.72
2022-11-28T08:51:38.221Z,4.73
2022-11-28T08:54:08.712Z,4.75
2022-11-28T08:56:37.078Z,4.80
2022-11-28T08:59:04.342Z,4.80
2022-11-28T09:01:34.531Z,4.87
2022-11-28T09:04:01.871Z,4.90
2022-11-28T09:06:29.019Z,4.92
2022-11-28T09:08:55.805Z,4.92
2022-11-28T09:11:23.531Z,4.90
2022-11-28T09:13:51.207Z,4.92
2022-11-28T09:16:19.994Z,4.98
2022-11-28T09:18:51.792Z,5.01
2022-11-28T09:21:18.621Z,5.08
2022-11-28T09:23:45.799Z,5.11
2022-11-28T09:26:19.164Z,5.17
2022-11-28T09:28:48.569Z,5.16
2022-11-28T09:31:18.292Z,5.18
2022-11-28T09:33:46.350Z,5.24
2022-11-28T09:36:22.783Z,5.22
2022-11-28T09:38:57.750Z,5.27
2022-11-28T09:41:49.897Z,5.32
2022-11-28T09:44:42.970Z,5.42
2022-11-28T09:47:18.344Z,5.42
2022-11-28T09:50:16.758Z,5.49
2022-11-28T09:53:16.018Z,5.54
2022-11-28T09:55:48.915Z,5.62
2022-11-28T09:58:27.404Z,5.58
2022-11-28T10:01:18.178Z,5.56
2022-11-28T10:03:58.492Z,5.54
2022-11-28T10:06:45.244Z,5.49
2022-11-28T10:09:25.255Z,5.55
2022-11-28T10:12:06.179Z,5.56
2022-11-28T10:14:51.184Z,5.58
2022-11-28T10:17:44.909Z,5.56
2022-11-28T10:20:20.979Z,5.66
2022-11-28T10:22:59.241Z,5.77
2022-11-28T10:25:37.962Z,5.77
2022-11-28T10:28:19.647Z,5.90
2022-11-28T10:30:51.242Z,5.96
2022-11-28T10:33:34.286Z,6.03
2022-11-28T10:36:02.839Z,6.07
2022-11-28T10:38:37.211Z,6.08
2022-11-28T10:41:09.221Z,6.06
2022-11-28T10:43:45.346Z,6.14
2022-11-28T10:46:18.480Z,6.15
2022-11-28T10:49:00.691Z,6.25
2022-11-28T10:51:46.300Z,6.29
2022-11-28T10:54:44.256Z,6.40
2022-11-28T10:57:38.873Z,6.32
2022-11-28T11:00:19.646Z,6.30
2022-11-28T11:02:55.353Z,6.29
2022-11-28T11:05:30.163Z,6.30
2022-11-28T11:08:16.178Z,6.26
2022-11-28T11:11:01.788Z,6.27
2022-11-28T11:13:41.092Z,6.25
2022-11-28T11:16:14.902Z,6.26
2022-11-28T11:18:47.172Z,6.31
2022-11-28T11:21:38.260Z,6.35
2022-11-28T11:24:14.255Z,6.29
2022-11-28T11:26:46.589Z,6.26
2022-11-28T11:29:24.468Z,6.20
2022-11-28T11:31:55.007Z,6.32
2022-11-28T11:34:49.136Z,6.32
2022-11-28T11:37:40.687Z,6.36
2022-11-28T11:44:15.616Z,6.31
2022-11-28T11:46:52.543Z,6.38
2022-11-28T11:49:31.594Z,6.50
2022-11-28T11:52:02.841Z,6.59
2022-11-28T11:54:33.737Z,6.66
2022-11-28T11:57:30.646Z,6.67
2022-11-28T12:00:48.950Z,6.69
2022-11-28T12:03:46.706Z,6.58
2022-11-28T12:06:52.433Z,6.63
2022-11-28T12:11:06.844Z,6.62
2022-11-28T12:14:00.631Z,6.62
2022-11-28T12:16:37.451Z,6.54
2022-11-28T12:20:08.649Z,6.49
2022-11-28T12:23:35.137Z,6.51
2022-11-28T12:27:17.389Z,6.54
2022-11-28T12:30:47.156Z,6.64
2022-11-28T12:34:11.326Z,6.62
2022-11-28T12:37:10.485Z,6.72
2022-11-28T12:39:58.779Z,6.66
2022-11-28T12:42:42.382Z,6.82
2022-11-28T12:45:29.791Z,6.86
2022-11-28T12:48:04.279Z,6.99
2022-11-28T12:50:45.787Z,7.07
2022-11-28T12:54:00.145Z,7.09
2022-11-28T12:56:59.251Z,7.06
2022-11-28T12:59:44.580Z,7.02
2022-11-28T13:02:45.570Z,6.98
2022-11-28T13:05:40.541Z,6.91
2022-11-28T13:08:18.895Z,6.92
2022-11-28T13:10:57.985Z,6.92
2022-11-28T13:13:40.023Z,6.89
2022-11-28T13:16:33.827Z,6.89
2022-11-28T13:19:25.545Z,6.90
2022-11-28T13:23:02.456Z,6.88
2022-11-28T13:26:03.834Z,6.88
2022-11-28T13:28:50.031Z,6.92
2022-11-28T13:31:44.974Z,6.90
2022-11-28T13:34:16.883Z,6.94
2022-11-28T13:39:47.218Z,6.78
2022-11-28T13:45:31.918Z,6.63
2022-11-28T13:48:00.930Z,6.66
2022-11-28T13:50:33.929Z,6.65
2022-11-28T13:53:14.586Z,6.56
2022-11-28T13:55:53.739Z,6.54
2022-11-28T13:58:32.157Z,6.53
2022-11-28T14:01:15.484Z,6.54
2022-11-28T14:04:01.688Z,6.52
2022-11-28T14:06:48.227Z,6.45
2022-11-28T14:09:14.879Z,6.47
2022-11-28T14:11:51.762Z,6.52
2022-11-28T14:14:21.380Z,6.51
2022-11-28T14:17:27.383Z,6.52
2022-11-28T14:20:31.751Z,6.50
2022-11-28T14:23:22.268Z,6.46
2022-11-28T14:26:06.706Z,6.37
2022-11-28T14:28:40.756Z,6.38
2022-11-28T14:31:11.335Z,6.44
2022-11-28T14:33:43.709Z,6.42
2022-11-28T14:36:34.466Z,6.40
2022-11-28T14:39:04.757Z,6.44
2022-11-28T14:41:31.993Z,6.40
2022-11-28T14:44:36.515Z,6.38
2022-11-28T14:47:37.525Z,6.37
2022-11-28T14:50:07.305Z,6.36
2022-11-28T14:52:39.970Z,6.34
2022-11-28T14:55:26.086Z,6.28
2022-11-28T14:58:02.288Z,6.25
2022-11-28T15:00:44.020Z,6.16
2022-11-28T15:03:37.422Z,6.21
2022-11-28T15:06:36.112Z,6.13
2022-11-28T15:09:42.874Z,6.21
2022-11-28T15:12:21.688Z,6.20
2022-11-28T15:14:57.413Z,6.13
2022-11-28T15:17:30.752Z,6.11
2022-11-28T15:20:08.358Z,5.98
2022-11-28T15:27:10.809Z,5.85
2022-11-28T15:29:40.849Z,5.86
2022-11-28T15:32:17.421Z,5.81
2022-11-28T15:34:57.533Z,5.70
2022-11-28T15:40:26.626Z,5.62
2022-11-28T15:43:16.382Z,5.61
2022-11-28T15:46:17.459Z,5.60
2022-11-28T15:48:49.847Z,5.44
2022-11-28T15:51:35.771Z,5.46
2022-11-28T15:54:45.326Z,5.44
2022-11-28T15:57:38.797Z,5.43
2022-11-28T16:00:24.687Z,5.40
2022-11-28T16:03:22.373Z,5.38
2022-11-28T16:06:33.400Z,5.32
2022-11-28T16:09:09.570Z,5.24
2022-11-28T16:11:36.623Z,5.25
2022-11-28T16:14:22.764Z,5.27
2022-11-28T16:17:16.804Z,5.24
2022-11-28T16:20:07.533Z,5.19
2022-11-28T16:23:02.456Z,5.14
2022-11-28T16:25:42.527Z,5.18
2022-11-28T16:28:46.054Z,5.22
2022-11-28T16:31:32.346Z,5.19
2022-11-28T16:35:01.677Z,5.19
2022-11-28T16:37:43.176Z,5.11
2022-11-28T16:40:31.987Z,5.20
2022-11-28T16:43:23.476Z,5.06
2022-11-28T16:46:08.041Z,5.10
2022-11-28T16:48:39.455Z,5.06
2022-11-28T16:51:30.382Z,5.00
2022-11-28T16:55:07.201Z,4.96
2022-11-28T16:58:09.344Z,5.01
2022-11-28T17:01:19.756Z,5.00
2022-11-28T17:03:58.010Z,4.95
2022-11-28T17:06:31.654Z,4.97
2022-11-28T17:09:22.511Z,4.96
2022-11-28T17:12:27.189Z,4.95
2022-11-28T17:15:01.604Z,4.98
2022-11-28T17:17:30.977Z,5.03
2022-11-28T17:19:57.749Z,5.00
2022-11-28T17:23:22.656Z,5.03
2022-11-28T17:26:05.538Z,5.05
2022-11-28T17:29:09.879Z,5.00
2022-11-28T17:41:02.049Z,5.00
2022-11-28T17:44:20.534Z,4.97
2022-11-28T17:47:15.398Z,4.96
2022-11-28T17:54:00.569Z,4.86
2022-11-28T17:58:16.800Z,4.85
2022-11-28T17:59:41.734Z,4.84
2022-11-28T18:02:11.064Z,4.86
2022-11-28T18:04:41.120Z,4.86
2022-11-28T18:07:58.730Z,4.90
2022-11-28T18:10:28.767Z,4.76
2022-11-28T18:12:56.640Z,4.76
2022-11-28T18:15:23.550Z,4.75
2022-11-28T18:17:50.807Z,4.72
2022-11-28T18:20:20.474Z,4.74
2022-11-28T18:22:47.490Z,4.77
2022-11-28T18:25:20.723Z,4.70
2022-11-28T18:27:47.882Z,4.73
2022-11-28T18:30:15.327Z,4.77
2022-11-28T18:32:42.320Z,4.69
2022-11-28T18:35:12.280Z,4.63
2022-11-28T18:37:42.256Z,4.65
2022-11-28T18:40:11.621Z,4.65
2022-11-28T18:42:38.961Z,4.58
2022-11-28T18:45:06.201Z,4.55
2022-11-28T18:47:36.229Z,4.41
2022-11-28T18:50:03.412Z,4.52
2022-11-28T18:52:30.120Z,4.50
2022-11-28T18:54:56.959Z,4.47
2022-11-28T18:57:31.294Z,4.48
2022-11-28T19:00:11.997Z,4.45
2022-11-28T19:02:41.372Z,4.48
2022-11-28T19:05:19.613Z,4.51
2022-11-28T19:07:46.587Z,4.49
2022-11-28T19:10:15.699Z,4.50
2022-11-28T19:12:57.846Z,4.50
2022-11-28T19:15:24.849Z,4.50
2022-11-28T19:17:51.736Z,4.47
2022-11-28T19:20:19.864Z,4.46
2022-11-28T19:22:46.751Z,4.52
2022-11-28T19:25:13.796Z,4.48
2022-11-28T19:27:40.556Z,4.51
2022-11-28T19:30:08.243Z,4.47
2022-11-28T19:32:39.017Z,4.50
2022-11-28T19:35:05.860Z,4.44
2022-11-28T19:37:32.746Z,4.51
2022-11-28T19:40:02.492Z,4.42
2022-11-28T19:42:30.206Z,4.47
2022-11-28T19:45:11.887Z,4.50
2022-11-28T19:47:49.317Z,4.48
2022-11-28T19:50:16.237Z,4.43
2022-11-28T19:52:42.994Z,4.56
2022-11-28T19:55:12.593Z,4.55
2022-11-28T19:57:39.402Z,4.53
2022-11-28T20:00:06.776Z,4.49
2022-11-28T20:02:33.593Z,4.48
2022-11-28T20:05:00.373Z,4.40
2022-11-28T20:07:27.979Z,4.45
2022-11-28T20:09:55.011Z,4.46
2022-11-28T20:12:21.910Z,4.52
2022-11-28T20:14:48.663Z,4.51
2022-11-28T20:17:15.235Z,4.54
2022-11-28T20:19:45.243Z,4.49
2022-11-28T20:22:12.373Z,4.41
2022-11-28T20:24:39.300Z,4.41
2022-11-28T20:27:06.351Z,4.36
2022-11-28T20:29:33.405Z,4.45
2022-11-28T20:32:00.663Z,4.37
2022-11-28T20:34:27.496Z,4.43
2022-11-28T20:36:54.423Z,4.36
2022-11-28T20:39:21.380Z,4.38
2022-11-28T20:41:50.864Z,4.47
2022-11-28T20:44:19.076Z,4.44
2022-11-28T20:46:46.541Z,4.43
2022-11-28T20:49:15.285Z,4.45
2022-11-28T20:51:42.761Z,4.44
2022-11-28T20:54:12.084Z,4.47
2022-11-28T20:57:20.202Z,4.45
2022-11-28T20:59:30.437Z,4.40
2022-11-28T21:01:58.960Z,4.41
2022-11-28T21:04:25.654Z,4.37
2022-11-28T21:06:52.438Z,4.47
2022-11-28T21:09:20.464Z,4.43
2022-11-28T21:11:57.893Z,4.43
2022-11-28T21:14:25.293Z,4.35
2022-11-28T21:16:52.206Z,4.25
2022-11-28T21:19:19.095Z,4.32
2022-11-28T21:21:45.734Z,4.36
2022-11-28T21:24:13.953Z,4.34
2022-11-28T21:26:45.373Z,4.28
2022-11-28T21:29:16.555Z,4.17
2022-11-28T21:31:44.892Z,4.25
2022-11-28T21:34:14.417Z,4.27
2022-11-28T21:36:42.227Z,4.29
2022-11-28T21:39:12.780Z,4.25
2022-11-28T21:41:39.583Z,4.22
2022-11-28T21:44:06.330Z,4.17
2022-11-28T21:46:33.140Z,4.14
2022-11-28T21:48:59.863Z,4.15
2022-11-28T21:51:28.558Z,4.17
2022-11-28T21:53:57.384Z,4.15
2022-11-28T21:56:25.123Z,4.13
2022-11-28T21:58:51.915Z,4.12
2022-11-28T22:01:20.332Z,4.10
2022-11-28T22:03:50.191Z,4.10
2022-11-28T22:06:22.302Z,4.09
2022-11-28T22:08:51.127Z,4.07
2022-11-28T22:11:19.749Z,4.15
2022-11-28T22:13:49.017Z,4.13
2022-11-28T22:16:27.453Z,4.13
2022-11-28T22:18:57.845Z,4.11
2022-11-28T22:24:14.502Z,4.08
2022-11-28T22:26:42.402Z,4.08
2022-11-28T22:29:09.251Z,4.13
2022-11-28T22:31:36.153Z,4.16
2022-11-28T22:34:02.862Z,4.18
2022-11-28T22:36:29.654Z,4.19
2022-11-28T22:38:58.939Z,4.12
2022-11-28T22:41:29.355Z,4.10
2022-11-28T22:43:57.717Z,4.05
2022-11-28T22:46:24.644Z,4.08
2022-11-28T22:48:54.539Z,4.05
2022-11-28T22:51:23.950Z,4.04
2022-11-28T22:54:01.492Z,4.02
2022-11-28T22:56:33.058Z,3.95
2022-11-28T22:59:00.421Z,3.95
2022-11-28T23:01:30.239Z,4.01
2022-11-28T23:03:57.405Z,4.01
2022-11-28T23:06:29.776Z,3.99
2022-11-28T23:08:58.232Z,3.99
2022-11-28T23:11:27.707Z,4.00
2022-11-28T23:13:55.161Z,3.97
2022-11-28T23:16:25.167Z,3.97
2022-11-28T23:18:55.699Z,3.98
2022-11-28T23:21:23.771Z,3.99
2022-11-28T23:23:50.610Z,4.05
2022-11-28T23:26:24.219Z,4.04
2022-11-28T23:28:51.683Z,4.02
2022-11-28T23:31:24.280Z,4.02
2022-11-28T23:33:53.028Z,4.03
2022-11-28T23:36:22.408Z,3.96
2022-11-28T23:38:54.710Z,4.02
2022-11-28T23:41:21.747Z,4.06
2022-11-28T23:43:49.167Z,4.07
2022-11-28T23:46:17.330Z,4.00
2022-11-28T23:48:47.598Z,3.98
2022-11-28T23:51:20.991Z,3.99
2022-11-28T23:53:48.129Z,4.02
2022-11-28T23:56:17.685Z,3.98
2022-11-28T23:58:44.953Z,3.99
